sensor_id;sensor_type;location;lat;lon;timestamp;P1;durP1;ratioP1;P2;durP2;ratioP2
44824;SDS011;30542;47.928;2.138;2023-07-31T00:04:37;1.70;;;1.00;;
44824;SDS011;30542;47.928;2.138;2023-07-31T00:09:37;1.67;;;1.10;;
44824;SDS011;30542;47.928;2.138;2023-07-31T00:14:37;2.17;;;1.43;;
44824;SDS011;30542;47.928;2.138;2023-07-31T00:19:37;1.50;;;0.90;;
44824;SDS011;30542;47.928;2.138;2023-07-31T00:24:38;2.10;;;1.20;;
44824;SDS011;30542;47.928;2.138;2023-07-31T00:29:38;3.35;;;1.10;;
44824;SDS011;30542;47.928;2.138;2023-07-31T00:34:38;1.43;;;1.10;;
44824;SDS011;30542;47.928;2.138;2023-07-31T00:39:39;3.40;;;1.30;;
44824;SDS011;30542;47.928;2.138;2023-07-31T00:44:39;3.63;;;1.57;;
44824;SDS011;30542;47.928;2.138;2023-07-31T00:49:39;4.60;;;1.27;;
44824;SDS011;30542;47.928;2.138;2023-07-31T00:54:40;3.23;;;1.60;;
44824;SDS011;30542;47.928;2.138;2023-07-31T00:59:40;3.80;;;1.73;;
44824;SDS011;30542;47.928;2.138;2023-07-31T01:04:42;1.63;;;1.00;;
44824;SDS011;30542;47.928;2.138;2023-07-31T01:15:09;4.45;;;1.33;;
44824;SDS011;30542;47.928;2.138;2023-07-31T01:20:17;3.65;;;1.20;;
44824;SDS011;30542;47.928;2.138;2023-07-31T01:30:47;3.55;;;1.40;;
44824;SDS011;30542;47.928;2.138;2023-07-31T01:35:48;3.30;;;1.52;;
44824;SDS011;30542;47.928;2.138;2023-07-31T01:40:52;1.92;;;1.30;;
44824;SDS011;30542;47.928;2.138;2023-07-31T01:45:53;1.95;;;1.13;;
44824;SDS011;30542;47.928;2.138;2023-07-31T01:50:53;2.13;;;1.50;;
44824;SDS011;30542;47.928;2.138;2023-07-31T01:55:54;5.13;;;1.63;;
44824;SDS011;30542;47.928;2.138;2023-07-31T02:00:54;2.57;;;1.33;;
44824;SDS011;30542;47.928;2.138;2023-07-31T02:05:54;2.53;;;1.43;;
44824;SDS011;30542;47.928;2.138;2023-07-31T02:10:55;2.80;;;1.35;;
44824;SDS011;30542;47.928;2.138;2023-07-31T02:15:56;2.10;;;1.45;;
44824;SDS011;30542;47.928;2.138;2023-07-31T02:20:57;2.63;;;1.50;;
44824;SDS011;30542;47.928;2.138;2023-07-31T02:25:57;2.13;;;1.45;;
44824;SDS011;30542;47.928;2.138;2023-07-31T02:30:57;1.98;;;1.42;;
44824;SDS011;30542;47.928;2.138;2023-07-31T02:35:58;2.07;;;1.27;;
44824;SDS011;30542;47.928;2.138;2023-07-31T02:40:58;1.70;;;1.10;;
44824;SDS011;30542;47.928;2.138;2023-07-31T02:45:59;2.70;;;1.20;;
44824;SDS011;30542;47.928;2.138;2023-07-31T02:50:59;2.70;;;1.33;;
44824;SDS011;30542;47.928;2.138;2023-07-31T02:56:00;1.93;;;1.33;;
44824;SDS011;30542;47.928;2.138;2023-07-31T03:01:00;3.27;;;1.87;;
44824;SDS011;30542;47.928;2.138;2023-07-31T03:06:01;2.67;;;1.42;;
44824;SDS011;30542;47.928;2.138;2023-07-31T03:11:01;3.17;;;1.50;;
44824;SDS011;30542;47.928;2.138;2023-07-31T03:16:01;1.77;;;1.20;;
44824;SDS011;30542;47.928;2.138;2023-07-31T03:21:02;2.20;;;1.30;;
44824;SDS011;30542;47.928;2.138;2023-07-31T03:26:03;3.80;;;1.50;;
44824;SDS011;30542;47.928;2.138;2023-07-31T03:31:07;1.63;;;1.30;;
44824;SDS011;30542;47.928;2.138;2023-07-31T03:36:08;2.25;;;1.15;;
44824;SDS011;30542;47.928;2.138;2023-07-31T03:41:08;1.87;;;1.30;;
44824;SDS011;30542;47.928;2.138;2023-07-31T03:46:10;2.33;;;1.33;;
44824;SDS011;30542;47.928;2.138;2023-07-31T03:51:11;1.98;;;1.25;;
44824;SDS011;30542;47.928;2.138;2023-07-31T03:56:11;2.27;;;1.30;;
44824;SDS011;30542;47.928;2.138;2023-07-31T04:01:11;2.73;;;1.33;;
44824;SDS011;30542;47.928;2.138;2023-07-31T04:06:12;1.63;;;1.10;;
44824;SDS011;30542;47.928;2.138;2023-07-31T04:11:12;1.77;;;1.52;;
44824;SDS011;30542;47.928;2.138;2023-07-31T04:16:12;2.83;;;1.20;;
44824;SDS011;30542;47.928;2.138;2023-07-31T04:21:13;1.73;;;1.20;;
44824;SDS011;30542;47.928;2.138;2023-07-31T04:26:13;1.93;;;0.90;;
44824;SDS011;30542;47.928;2.138;2023-07-31T04:31:13;2.73;;;1.20;;
44824;SDS011;30542;47.928;2.138;2023-07-31T04:36:14;1.90;;;0.97;;
44824;SDS011;30542;47.928;2.138;2023-07-31T04:41:14;2.40;;;1.30;;
44824;SDS011;30542;47.928;2.138;2023-07-31T04:46:14;1.92;;;1.20;;
44824;SDS011;30542;47.928;2.138;2023-07-31T04:51:15;2.37;;;1.33;;
44824;SDS011;30542;47.928;2.138;2023-07-31T04:56:15;3.50;;;1.67;;
44824;SDS011;30542;47.928;2.138;2023-07-31T05:01:16;3.13;;;1.20;;
44824;SDS011;30542;47.928;2.138;2023-07-31T05:06:16;3.87;;;1.50;;
44824;SDS011;30542;47.928;2.138;2023-07-31T05:11:16;2.55;;;1.23;;
44824;SDS011;30542;47.928;2.138;2023-07-31T05:16:17;3.13;;;1.83;;
44824;SDS011;30542;47.928;2.138;2023-07-31T05:21:17;3.90;;;1.52;;
44824;SDS011;30542;47.928;2.138;2023-07-31T05:26:18;1.80;;;1.00;;
44824;SDS011;30542;47.928;2.138;2023-07-31T05:31:18;3.08;;;1.50;;
44824;SDS011;30542;47.928;2.138;2023-07-31T05:36:18;3.40;;;1.37;;
44824;SDS011;30542;47.928;2.138;2023-07-31T05:41:19;3.37;;;1.10;;
44824;SDS011;30542;47.928;2.138;2023-07-31T05:46:19;2.50;;;1.20;;
44824;SDS011;30542;47.928;2.138;2023-07-31T05:51:19;3.17;;;1.42;;
44824;SDS011;30542;47.928;2.138;2023-07-31T05:56:19;3.00;;;1.50;;
44824;SDS011;30542;47.928;2.138;2023-07-31T06:01:20;1.48;;;1.10;;
44824;SDS011;30542;47.928;2.138;2023-07-31T06:06:21;1.90;;;1.40;;
44824;SDS011;30542;47.928;2.138;2023-07-31T06:11:21;3.23;;;1.40;;
44824;SDS011;30542;47.928;2.138;2023-07-31T06:16:22;2.50;;;1.52;;
44824;SDS011;30542;47.928;2.138;2023-07-31T06:21:23;2.78;;;1.83;;
44824;SDS011;30542;47.928;2.138;2023-07-31T06:26:23;4.10;;;1.93;;
44824;SDS011;30542;47.928;2.138;2023-07-31T06:31:23;3.57;;;1.40;;
44824;SDS011;30542;47.928;2.138;2023-07-31T06:36:24;2.57;;;1.50;;
44824;SDS011;30542;47.928;2.138;2023-07-31T06:41:24;3.33;;;1.70;;
44824;SDS011;30542;47.928;2.138;2023-07-31T06:46:24;3.28;;;1.70;;
44824;SDS011;30542;47.928;2.138;2023-07-31T06:51:25;2.50;;;1.60;;
44824;SDS011;30542;47.928;2.138;2023-07-31T06:56:25;4.80;;;1.77;;
44824;SDS011;30542;47.928;2.138;2023-07-31T07:01:26;6.20;;;3.17;;
44824;SDS011;30542;47.928;2.138;2023-07-31T07:06:27;5.05;;;2.85;;
44824;SDS011;30542;47.928;2.138;2023-07-31T07:11:28;6.87;;;3.50;;
44824;SDS011;30542;47.928;2.138;2023-07-31T07:16:28;8.80;;;3.73;;
44824;SDS011;30542;47.928;2.138;2023-07-31T07:21:29;9.27;;;3.92;;
44824;SDS011;30542;47.928;2.138;2023-07-31T07:26:29;10.40;;;3.90;;
44824;SDS011;30542;47.928;2.138;2023-07-31T07:31:29;8.53;;;3.63;;
44824;SDS011;30542;47.928;2.138;2023-07-31T07:36:30;12.33;;;4.20;;
44824;SDS011;30542;47.928;2.138;2023-07-31T07:41:32;10.68;;;3.67;;
44824;SDS011;30542;47.928;2.138;2023-07-31T07:46:32;7.97;;;3.90;;
44824;SDS011;30542;47.928;2.138;2023-07-31T07:51:33;7.43;;;3.87;;
44824;SDS011;30542;47.928;2.138;2023-07-31T07:56:33;8.80;;;4.00;;
44824;SDS011;30542;47.928;2.138;2023-07-31T08:01:33;11.80;;;4.00;;
44824;SDS011;30542;47.928;2.138;2023-07-31T08:06:34;8.98;;;3.92;;
44824;SDS011;30542;47.928;2.138;2023-07-31T08:11:34;8.07;;;3.53;;
44824;SDS011;30542;47.928;2.138;2023-07-31T08:16:35;9.77;;;4.13;;
44824;SDS011;30542;47.928;2.138;2023-07-31T08:21:35;7.80;;;3.80;;
44824;SDS011;30542;47.928;2.138;2023-07-31T08:26:35;8.83;;;4.47;;
44824;SDS011;30542;47.928;2.138;2023-07-31T08:31:36;7.17;;;3.77;;
44824;SDS011;30542;47.928;2.138;2023-07-31T08:36:36;8.35;;;4.18;;
44824;SDS011;30542;47.928;2.138;2023-07-31T08:41:37;9.50;;;4.15;;
44824;SDS011;30542;47.928;2.138;2023-07-31T08:46:39;10.75;;;4.00;;
44824;SDS011;30542;47.928;2.138;2023-07-31T08:51:40;7.30;;;3.90;;
44824;SDS011;30542;47.928;2.138;2023-07-31T08:56:41;9.00;;;3.67;;
44824;SDS011;30542;47.928;2.138;2023-07-31T09:01:43;8.45;;;3.20;;
44824;SDS011;30542;47.928;2.138;2023-07-31T09:06:54;10.68;;;3.72;;
44824;SDS011;30542;47.928;2.138;2023-07-31T09:11:59;7.90;;;3.67;;
44824;SDS011;30542;47.928;2.138;2023-07-31T09:17:01;7.22;;;3.10;;
44824;SDS011;30542;47.928;2.138;2023-07-31T09:22:01;7.50;;;4.15;;
44824;SDS011;30542;47.928;2.138;2023-07-31T09:27:02;5.97;;;3.23;;
44824;SDS011;30542;47.928;2.138;2023-07-31T09:32:02;7.00;;;3.00;;
44824;SDS011;30542;47.928;2.138;2023-07-31T09:37:03;7.60;;;3.42;;
44824;SDS011;30542;47.928;2.138;2023-07-31T09:42:04;16.30;;;4.97;;
44824;SDS011;30542;47.928;2.138;2023-07-31T09:47:05;12.95;;;4.65;;
44824;SDS011;30542;47.928;2.138;2023-07-31T09:52:09;12.18;;;4.35;;
44824;SDS011;30542;47.928;2.138;2023-07-31T09:57:11;9.48;;;3.83;;
44824;SDS011;30542;47.928;2.138;2023-07-31T10:02:14;9.48;;;3.33;;
44824;SDS011;30542;47.928;2.138;2023-07-31T10:07:17;4.55;;;2.70;;
44824;SDS011;30542;47.928;2.138;2023-07-31T10:12:20;5.63;;;2.92;;
44824;SDS011;30542;47.928;2.138;2023-07-31T10:17:22;6.13;;;3.17;;
44824;SDS011;30542;47.928;2.138;2023-07-31T10:22:23;5.00;;;3.20;;
44824;SDS011;30542;47.928;2.138;2023-07-31T10:27:24;6.15;;;3.15;;
44824;SDS011;30542;47.928;2.138;2023-07-31T10:32:25;10.00;;;3.78;;
44824;SDS011;30542;47.928;2.138;2023-07-31T10:37:27;7.10;;;3.47;;
44824;SDS011;30542;47.928;2.138;2023-07-31T10:47:30;5.68;;;3.10;;
44824;SDS011;30542;47.928;2.138;2023-07-31T10:52:30;5.70;;;3.15;;
44824;SDS011;30542;47.928;2.138;2023-07-31T10:57:35;8.63;;;3.33;;
44824;SDS011;30542;47.928;2.138;2023-07-31T11:02:35;5.43;;;3.15;;
44824;SDS011;30542;47.928;2.138;2023-07-31T11:07:48;6.80;;;3.17;;
44824;SDS011;30542;47.928;2.138;2023-07-31T11:12:49;6.07;;;3.47;;
44824;SDS011;30542;47.928;2.138;2023-07-31T11:17:49;7.30;;;3.87;;
44824;SDS011;30542;47.928;2.138;2023-07-31T11:22:49;6.05;;;3.13;;
44824;SDS011;30542;47.928;2.138;2023-07-31T11:27:50;6.50;;;3.13;;
44824;SDS011;30542;47.928;2.138;2023-07-31T11:32:54;5.25;;;3.05;;
44824;SDS011;30542;47.928;2.138;2023-07-31T11:37:55;5.55;;;3.00;;
44824;SDS011;30542;47.928;2.138;2023-07-31T11:42:56;8.07;;;3.37;;
44824;SDS011;30542;47.928;2.138;2023-07-31T11:47:57;6.80;;;3.08;;
44824;SDS011;30542;47.928;2.138;2023-07-31T11:52:59;6.90;;;3.07;;
44824;SDS011;30542;47.928;2.138;2023-07-31T11:58:01;7.15;;;3.15;;
44824;SDS011;30542;47.928;2.138;2023-07-31T12:03:02;8.20;;;3.47;;
44824;SDS011;30542;47.928;2.138;2023-07-31T12:08:03;4.13;;;3.08;;
44824;SDS011;30542;47.928;2.138;2023-07-31T12:13:10;8.02;;;3.83;;
44824;SDS011;30542;47.928;2.138;2023-07-31T12:18:19;5.60;;;3.00;;
44824;SDS011;30542;47.928;2.138;2023-07-31T12:23:21;5.95;;;2.92;;
44824;SDS011;30542;47.928;2.138;2023-07-31T12:28:29;5.75;;;2.78;;
44824;SDS011;30542;47.928;2.138;2023-07-31T12:33:30;6.18;;;3.08;;
44824;SDS011;30542;47.928;2.138;2023-07-31T12:38:34;4.35;;;2.70;;
44824;SDS011;30542;47.928;2.138;2023-07-31T12:43:36;6.40;;;2.80;;
44824;SDS011;30542;47.928;2.138;2023-07-31T12:48:37;4.25;;;2.83;;
44824;SDS011;30542;47.928;2.138;2023-07-31T12:53:38;6.20;;;3.20;;
44824;SDS011;30542;47.928;2.138;2023-07-31T12:58:39;6.45;;;3.38;;
44824;SDS011;30542;47.928;2.138;2023-07-31T13:03:39;5.10;;;2.93;;
44824;SDS011;30542;47.928;2.138;2023-07-31T13:08:39;4.07;;;2.50;;
44824;SDS011;30542;47.928;2.138;2023-07-31T13:13:41;5.63;;;2.90;;
44824;SDS011;30542;47.928;2.138;2023-07-31T13:18:41;4.97;;;2.53;;
44824;SDS011;30542;47.928;2.138;2023-07-31T13:23:41;6.47;;;2.73;;
44824;SDS011;30542;47.928;2.138;2023-07-31T13:28:42;5.60;;;2.83;;
44824;SDS011;30542;47.928;2.138;2023-07-31T13:33:42;6.53;;;3.13;;
44824;SDS011;30542;47.928;2.138;2023-07-31T13:38:42;5.43;;;2.63;;
44824;SDS011;30542;47.928;2.138;2023-07-31T13:43:43;5.57;;;2.57;;
44824;SDS011;30542;47.928;2.138;2023-07-31T13:48:43;5.70;;;2.83;;
44824;SDS011;30542;47.928;2.138;2023-07-31T13:53:43;4.60;;;2.77;;
44824;SDS011;30542;47.928;2.138;2023-07-31T13:58:44;6.35;;;2.78;;
44824;SDS011;30542;47.928;2.138;2023-07-31T14:03:44;5.13;;;2.57;;
44824;SDS011;30542;47.928;2.138;2023-07-31T14:08:44;8.50;;;2.83;;
44824;SDS011;30542;47.928;2.138;2023-07-31T14:13:45;5.73;;;2.60;;
44824;SDS011;30542;47.928;2.138;2023-07-31T14:18:45;4.07;;;2.00;;
44824;SDS011;30542;47.928;2.138;2023-07-31T14:23:46;5.97;;;2.67;;
44824;SDS011;30542;47.928;2.138;2023-07-31T14:28:46;4.32;;;2.60;;
44824;SDS011;30542;47.928;2.138;2023-07-31T14:33:46;5.05;;;2.63;;
44824;SDS011;30542;47.928;2.138;2023-07-31T14:38:47;4.50;;;2.60;;
44824;SDS011;30542;47.928;2.138;2023-07-31T14:43:47;4.97;;;2.70;;
44824;SDS011;30542;47.928;2.138;2023-07-31T14:48:47;3.25;;;2.60;;
44824;SDS011;30542;47.928;2.138;2023-07-31T14:53:48;5.68;;;2.88;;
44824;SDS011;30542;47.928;2.138;2023-07-31T14:58:48;4.30;;;2.72;;
44824;SDS011;30542;47.928;2.138;2023-07-31T15:03:48;5.60;;;3.07;;
44824;SDS011;30542;47.928;2.138;2023-07-31T15:08:48;3.50;;;2.40;;
44824;SDS011;30542;47.928;2.138;2023-07-31T15:13:49;4.43;;;2.03;;
44824;SDS011;30542;47.928;2.138;2023-07-31T15:18:49;6.18;;;2.72;;
44824;SDS011;30542;47.928;2.138;2023-07-31T15:23:49;3.83;;;2.23;;
44824;SDS011;30542;47.928;2.138;2023-07-31T15:28:55;5.77;;;2.60;;
44824;SDS011;30542;47.928;2.138;2023-07-31T15:34:00;3.72;;;2.40;;
44824;SDS011;30542;47.928;2.138;2023-07-31T15:39:00;5.80;;;2.53;;
44824;SDS011;30542;47.928;2.138;2023-07-31T15:44:01;5.37;;;2.23;;
44824;SDS011;30542;47.928;2.138;2023-07-31T15:49:01;4.33;;;2.77;;
44824;SDS011;30542;47.928;2.138;2023-07-31T15:54:01;3.77;;;2.47;;
44824;SDS011;30542;47.928;2.138;2023-07-31T15:59:02;5.57;;;2.73;;
44824;SDS011;30542;47.928;2.138;2023-07-31T16:04:02;5.00;;;2.75;;
44824;SDS011;30542;47.928;2.138;2023-07-31T16:09:03;5.55;;;2.88;;
44824;SDS011;30542;47.928;2.138;2023-07-31T16:14:03;4.10;;;2.87;;
44824;SDS011;30542;47.928;2.138;2023-07-31T16:19:04;4.50;;;2.30;;
44824;SDS011;30542;47.928;2.138;2023-07-31T16:24:04;5.63;;;2.80;;
44824;SDS011;30542;47.928;2.138;2023-07-31T16:29:04;5.30;;;2.87;;
44824;SDS011;30542;47.928;2.138;2023-07-31T16:34:04;8.07;;;2.40;;
44824;SDS011;30542;47.928;2.138;2023-07-31T16:39:05;6.38;;;2.55;;
44824;SDS011;30542;47.928;2.138;2023-07-31T16:44:05;3.87;;;2.40;;
44824;SDS011;30542;47.928;2.138;2023-07-31T16:49:05;5.60;;;2.73;;
44824;SDS011;30542;47.928;2.138;2023-07-31T16:54:06;5.07;;;2.50;;
44824;SDS011;30542;47.928;2.138;2023-07-31T16:59:06;6.35;;;2.40;;
44824;SDS011;30542;47.928;2.138;2023-07-31T17:04:08;6.50;;;2.78;;
44824;SDS011;30542;47.928;2.138;2023-07-31T17:09:08;5.93;;;2.70;;
44824;SDS011;30542;47.928;2.138;2023-07-31T17:14:09;6.50;;;2.70;;
44824;SDS011;30542;47.928;2.138;2023-07-31T17:19:09;4.22;;;2.35;;
44824;SDS011;30542;47.928;2.138;2023-07-31T17:24:09;6.00;;;2.43;;
44824;SDS011;30542;47.928;2.138;2023-07-31T17:29:11;5.15;;;2.63;;
44824;SDS011;30542;47.928;2.138;2023-07-31T17:34:15;3.65;;;2.40;;
44824;SDS011;30542;47.928;2.138;2023-07-31T17:39:15;5.40;;;2.97;;
44824;SDS011;30542;47.928;2.138;2023-07-31T17:44:15;3.20;;;2.55;;
44824;SDS011;30542;47.928;2.138;2023-07-31T17:49:16;3.50;;;2.43;;
44824;SDS011;30542;47.928;2.138;2023-07-31T17:54:16;5.28;;;2.53;;
44824;SDS011;30542;47.928;2.138;2023-07-31T17:59:16;6.32;;;2.95;;
44824;SDS011;30542;47.928;2.138;2023-07-31T18:04:17;5.55;;;2.63;;
44824;SDS011;30542;47.928;2.138;2023-07-31T18:09:17;4.70;;;2.37;;
44824;SDS011;30542;47.928;2.138;2023-07-31T18:14:17;11.00;;;4.20;;
44824;SDS011;30542;47.928;2.138;2023-07-31T18:19:21;10.80;;;3.80;;
44824;SDS011;30542;47.928;2.138;2023-07-31T18:24:21;13.52;;;3.90;;
44824;SDS011;30542;47.928;2.138;2023-07-31T18:29:22;11.27;;;3.70;;
44824;SDS011;30542;47.928;2.138;2023-07-31T18:34:24;6.65;;;2.97;;
44824;SDS011;30542;47.928;2.138;2023-07-31T18:39:24;8.57;;;3.55;;
44824;SDS011;30542;47.928;2.138;2023-07-31T18:44:24;7.33;;;3.47;;
44824;SDS011;30542;47.928;2.138;2023-07-31T18:49:25;9.40;;;3.77;;
44824;SDS011;30542;47.928;2.138;2023-07-31T18:54:25;6.83;;;2.93;;
44824;SDS011;30542;47.928;2.138;2023-07-31T18:59:25;5.30;;;2.37;;
44824;SDS011;30542;47.928;2.138;2023-07-31T19:04:26;7.63;;;3.20;;
44824;SDS011;30542;47.928;2.138;2023-07-31T19:09:27;6.37;;;2.93;;
44824;SDS011;30542;47.928;2.138;2023-07-31T19:14:28;5.00;;;2.80;;
44824;SDS011;30542;47.928;2.138;2023-07-31T19:19:29;5.73;;;2.87;;
44824;SDS011;30542;47.928;2.138;2023-07-31T19:24:29;6.60;;;2.47;;
44824;SDS011;30542;47.928;2.138;2023-07-31T19:29:30;6.13;;;2.73;;
44824;SDS011;30542;47.928;2.138;2023-07-31T19:34:31;7.40;;;3.05;;
44824;SDS011;30542;47.928;2.138;2023-07-31T19:39:31;5.17;;;2.40;;
44824;SDS011;30542;47.928;2.138;2023-07-31T19:44:34;3.92;;;2.45;;
44824;SDS011;30542;47.928;2.138;2023-07-31T19:49:34;4.43;;;2.17;;
44824;SDS011;30542;47.928;2.138;2023-07-31T19:54:34;3.60;;;2.20;;
44824;SDS011;30542;47.928;2.138;2023-07-31T19:59:35;4.07;;;2.43;;
44824;SDS011;30542;47.928;2.138;2023-07-31T20:04:35;4.33;;;1.90;;
44824;SDS011;30542;47.928;2.138;2023-07-31T20:09:35;4.97;;;2.10;;
44824;SDS011;30542;47.928;2.138;2023-07-31T20:14:36;3.53;;;2.03;;
44824;SDS011;30542;47.928;2.138;2023-07-31T20:19:36;4.82;;;2.30;;
44824;SDS011;30542;47.928;2.138;2023-07-31T20:24:36;4.07;;;2.30;;
44824;SDS011;30542;47.928;2.138;2023-07-31T20:29:37;3.27;;;2.33;;
44824;SDS011;30542;47.928;2.138;2023-07-31T20:34:40;3.97;;;2.75;;
44824;SDS011;30542;47.928;2.138;2023-07-31T20:39:40;2.40;;;1.90;;
44824;SDS011;30542;47.928;2.138;2023-07-31T20:44:41;2.90;;;2.10;;
44824;SDS011;30542;47.928;2.138;2023-07-31T20:49:41;3.42;;;2.13;;
44824;SDS011;30542;47.928;2.138;2023-07-31T20:54:42;3.47;;;2.30;;
44824;SDS011;30542;47.928;2.138;2023-07-31T20:59:42;3.15;;;2.13;;
44824;SDS011;30542;47.928;2.138;2023-07-31T21:04:42;2.70;;;1.73;;
44824;SDS011;30542;47.928;2.138;2023-07-31T21:09:43;3.57;;;2.10;;
44824;SDS011;30542;47.928;2.138;2023-07-31T21:14:44;3.05;;;1.92;;
44824;SDS011;30542;47.928;2.138;2023-07-31T21:19:45;2.63;;;1.80;;
44824;SDS011;30542;47.928;2.138;2023-07-31T21:24:45;2.40;;;1.90;;
44824;SDS011;30542;47.928;2.138;2023-07-31T21:29:45;3.88;;;1.83;;
44824;SDS011;30542;47.928;2.138;2023-07-31T21:34:46;2.10;;;2.00;;
44824;SDS011;30542;47.928;2.138;2023-07-31T21:39:46;2.30;;;1.73;;
44824;SDS011;30542;47.928;2.138;2023-07-31T21:44:46;2.43;;;1.70;;
44824;SDS011;30542;47.928;2.138;2023-07-31T21:49:47;2.40;;;1.53;;
44824;SDS011;30542;47.928;2.138;2023-07-31T21:54:47;2.70;;;2.03;;
44824;SDS011;30542;47.928;2.138;2023-07-31T21:59:47;2.10;;;1.60;;
44824;SDS011;30542;47.928;2.138;2023-07-31T22:04:48;2.50;;;1.30;;
44824;SDS011;30542;47.928;2.138;2023-07-31T22:09:48;2.77;;;1.90;;
44824;SDS011;30542;47.928;2.138;2023-07-31T22:14:48;2.80;;;1.63;;
44824;SDS011;30542;47.928;2.138;2023-07-31T22:19:49;3.90;;;1.53;;
44824;SDS011;30542;47.928;2.138;2023-07-31T22:24:49;3.50;;;1.92;;
44824;SDS011;30542;47.928;2.138;2023-07-31T22:29:49;1.83;;;1.50;;
44824;SDS011;30542;47.928;2.138;2023-07-31T22:34:50;3.63;;;2.38;;
44824;SDS011;30542;47.928;2.138;2023-07-31T22:39:50;2.20;;;1.67;;
44824;SDS011;30542;47.928;2.138;2023-07-31T22:44:50;2.63;;;1.80;;
44824;SDS011;30542;47.928;2.138;2023-07-31T22:49:51;2.77;;;1.60;;
44824;SDS011;30542;47.928;2.138;2023-07-31T22:54:51;4.18;;;2.13;;
44824;SDS011;30542;47.928;2.138;2023-07-31T22:59:52;2.67;;;2.42;;
44824;SDS011;30542;47.928;2.138;2023-07-31T23:04:53;4.28;;;2.45;;
44824;SDS011;30542;47.928;2.138;2023-07-31T23:09:53;3.70;;;2.17;;
44824;SDS011;30542;47.928;2.138;2023-07-31T23:14:55;3.70;;;2.42;;
44824;SDS011;30542;47.928;2.138;2023-07-31T23:19:55;3.53;;;2.40;;
44824;SDS011;30542;47.928;2.138;2023-07-31T23:24:55;2.50;;;2.20;;
44824;SDS011;30542;47.928;2.138;2023-07-31T23:29:56;3.67;;;1.93;;
44824;SDS011;30542;47.928;2.138;2023-07-31T23:34:56;2.77;;;2.30;;
44824;SDS011;30542;47.928;2.138;2023-07-31T23:39:56;3.40;;;2.40;;
44824;SDS011;30542;47.928;2.138;2023-07-31T23:44:57;3.43;;;2.13;;
44824;SDS011;30542;47.928;2.138;2023-07-31T23:49:58;4.15;;;1.90;;
44824;SDS011;30542;47.928;2.138;2023-07-31T23:54:58;3.20;;;2.57;;
44824;SDS011;30542;47.928;2.138;2023-07-31T23:59:59;3.77;;;2.27;;
